< < Back
Terminal Aerodrome Forecast


Current Version              Previous Versions:   1  2  3  4  5  6  7  8  9  

Terminal Aerodrome Forecast

546
FTUS42 KTAE 290540
TAFTLH
TAF
KTLH 290540Z 2906/3006 36003KT P6SM FEW080 SCT250
     FM291400 36006KT P6SM SCT060
     FM300100 00000KT P6SM SCT250=

Latest METAR

363
SAUS80 KWBC 290700 RRA
MTRTLH
METAR KTLH 290653Z AUTO 01004KT 10SM CLR 24/20 A3004 RMK AO2 SLP170
T02390200


USA.gov is the U.S. government's official web portal to all federal, state and local government web resources and services.